Time;durP1;ratioP1;P1;durP2;ratioP2;P2;SDS_P1;SDS_P2;PMS_P1;PMS_P2;Temp;Humidity;BMP_temperature;BMP_pressure;BME280_temperature;BME280_humidity;BME280_pressure;Samples;Min_cycle;Max_cycle;Signal;HPM_P1;HPM_P2
2022/11/01 00:02:04;;;;;;;14.33;4.80;;;18.10;67.50;;;;;;5043394;28;20184;-83
2022/11/01 00:04:32;;;;;;;10.20;5.03;;;18.20;66.30;;;;;;5055534;28;20181;-83
2022/11/01 00:06:58;;;;;;;9.83;4.97;;;18.20;66.40;;;;;;5057407;28;20253;-85
2022/11/01 00:09:26;;;;;;;11.30;4.90;;;18.20;64.30;;;;;;5059589;28;20172;-86
2022/11/01 00:11:58;;;;;;;10.37;5.23;;;18.20;63.60;;;;;;5059113;28;20186;-86
2022/11/01 00:14:25;;;;;;;10.50;4.37;;;18.10;63.50;;;;;;5057074;28;20215;-86
2022/11/01 00:17:28;;;;;;;8.10;5.17;;;18.10;61.20;;;;;;5057995;28;20163;-87
2022/11/01 00:19:55;;;;;;;10.57;4.90;;;18.20;58.20;;;;;;5049155;28;20192;-83
2022/11/01 00:22:22;;;;;;;10.67;4.83;;;18.10;57.00;;;;;;5048597;28;20178;-87
2022/11/01 00:24:51;;;;;;;8.37;4.30;;;18.20;57.10;;;;;;5050450;28;20166;-86
2022/11/01 00:27:19;;;;;;;8.90;4.80;;;18.20;57.40;;;;;;5051439;28;20182;-83
2022/11/01 00:29:44;;;;;;;9.50;4.67;;;18.20;55.90;;;;;;5032636;28;20247;-83
2022/11/01 00:32:10;;;;;;;6.57;4.67;;;18.30;53.70;;;;;;5043202;28;20189;-82
2022/11/01 00:34:38;;;;;;;11.03;4.63;;;18.20;50.60;;;;;;5047590;28;20218;-81
2022/11/01 00:37:07;;;;;;;9.40;4.97;;;18.30;50.90;;;;;;5051847;28;20174;-81
2022/11/01 00:39:48;;;;;;;10.50;4.03;;;18.30;50.50;;;;;;5056145;28;20185;-82
2022/11/01 00:42:16;;;;;;;11.47;5.10;;;18.30;49.00;;;;;;5056821;28;20186;-81
2022/11/01 00:44:45;;;;;;;7.33;4.27;;;18.30;48.50;;;;;;5035453;28;20187;-81
2022/11/01 00:47:12;;;;;;;10.97;4.43;;;18.30;48.20;;;;;;5035021;28;20173;-84
2022/11/01 00:49:39;;;;;;;9.73;4.93;;;18.30;47.80;;;;;;5052347;28;20200;-88
2022/11/01 00:52:09;;;;;;;9.60;4.40;;;18.40;46.50;;;;;;5051015;28;20184;-87
2022/11/01 00:54:34;;;;;;;8.23;4.67;;;18.40;47.00;;;;;;5050651;28;20210;-86
2022/11/01 00:57:05;;;;;;;12.23;4.63;;;18.30;47.90;;;;;;5050021;28;20228;-84
2022/11/01 00:59:30;;;;;;;7.53;4.30;;;18.40;47.20;;;;;;5048450;28;20249;-85
2022/11/01 01:01:56;;;;;;;8.97;4.23;;;18.40;47.70;;;;;;5048123;28;20181;-85
2022/11/01 01:04:34;;;;;;;6.63;4.20;;;18.40;47.80;;;;;;5045396;28;20192;-83
2022/11/01 01:07:00;;;;;;;9.90;4.37;;;18.30;47.30;;;;;;5045809;28;20173;-83
2022/11/01 01:09:28;;;;;;;11.53;4.23;;;18.30;47.50;;;;;;5046868;28;20248;-86
2022/11/01 01:12:10;;;;;;;7.90;3.87;;;18.30;47.70;;;;;;5050933;28;20162;-85
2022/11/01 01:14:44;;;;;;;11.27;4.17;;;18.30;49.60;;;;;;5051479;28;20294;-86
2022/11/01 01:17:10;;;;;;;10.50;3.77;;;18.30;49.00;;;;;;5050556;28;20177;-81
2022/11/01 01:19:36;;;;;;;11.40;4.13;;;18.20;46.00;;;;;;5046511;28;20193;-83
2022/11/01 01:22:02;;;;;;;8.10;3.67;;;18.20;45.00;;;;;;5047823;28;20173;-84
2022/11/01 01:24:31;;;;;;;12.63;3.90;;;18.30;42.30;;;;;;5050584;28;20184;-83
2022/11/01 01:27:00;;;;;;;6.70;3.90;;;18.20;44.10;;;;;;5047056;28;20172;-82
2022/11/01 01:29:28;;;;;;;8.40;3.83;;;18.20;42.30;;;;;;5045862;28;20217;-83
2022/11/01 01:31:55;;;;;;;8.77;3.40;;;18.10;44.20;;;;;;5014497;28;20190;-83
2022/11/01 01:34:22;;;;;;;8.87;3.40;;;18.10;41.10;;;;;;5049748;28;20205;-83
2022/11/01 01:36:48;;;;;;;5.43;2.70;;;18.00;42.10;;;;;;5046838;28;20173;-81
2022/11/01 01:39:14;;;;;;;9.20;3.03;;;18.00;39.80;;;;;;5034684;28;20575;-84
2022/11/01 01:41:56;;;;;;;5.17;3.13;;;18.00;32.80;;;;;;5033301;28;20215;-82
2022/11/01 01:44:50;;;;;;;6.80;2.73;;;18.00;28.30;;;;;;5034268;28;20170;-83
2022/11/01 01:47:37;;;;;;;5.47;3.30;;;17.90;29.40;;;;;;5033559;28;20169;-82
2022/11/01 01:50:03;;;;;;;4.07;2.47;;;17.90;27.90;;;;;;5042362;28;20235;-82
2022/11/01 01:52:33;;;;;;;4.43;2.40;;;17.90;24.20;;;;;;5041441;28;20649;-82
2022/11/01 01:55:03;;;;;;;12.03;2.83;;;17.90;24.90;;;;;;5032451;28;20297;-81
2022/11/01 01:57:30;;;;;;;6.43;2.30;;;17.90;22.20;;;;;;5032375;28;20284;-83
2022/11/01 01:59:56;;;;;;;5.00;2.47;;;17.80;19.00;;;;;;5032638;28;20187;-83
2022/11/01 02:02:23;;;;;;;4.57;2.53;;;17.80;18.30;;;;;;5033487;28;20194;-84
2022/11/01 02:04:57;;;;;;;7.43;2.73;;;17.90;15.70;;;;;;5032560;28;20639;-83
2022/11/01 02:07:23;;;;;;;5.37;2.30;;;17.80;15.20;;;;;;5032032;28;20196;-83
2022/11/01 02:09:50;;;;;;;3.70;2.07;;;17.80;15.30;;;;;;5033710;28;20167;-83
2022/11/01 02:12:16;;;;;;;5.37;2.30;;;17.70;15.50;;;;;;5032486;28;20169;-81
2022/11/01 02:14:43;;;;;;;6.53;2.23;;;17.70;10.40;;;;;;5033483;28;20204;-82
2022/11/01 02:17:42;;;;;;;5.37;2.00;;;17.60;1.00;;;;;;5032482;28;20162;-88
2022/11/01 02:20:33;;;;;;;4.73;2.20;;;17.50;1.00;;;;;;5033613;28;20213;-85
2022/11/01 02:23:35;;;;;;;4.70;1.60;;;17.40;1.00;;;;;;5033318;28;20169;-87
2022/11/01 02:26:22;;;;;;;6.40;1.30;;;17.30;1.00;;;;;;5006536;28;20185;-86
2022/11/01 02:29:14;;;;;;;2.57;1.20;;;17.30;1.00;;;;;;5036777;28;20174;-85
2022/11/01 02:31:58;;;;;;;4.63;1.30;;;17.20;1.00;;;;;;5037354;28;20178;-82
2022/11/01 02:34:37;;;;;;;4.17;1.10;;;17.10;1.00;;;;;;5036872;28;20300;-85
2022/11/01 02:37:41;;;;;;;4.40;1.03;;;17.00;1.00;;;;;;5036992;28;20173;-85
2022/11/01 02:40:13;;;;;;;5.20;1.20;;;16.90;1.00;;;;;;5031247;28;20178;-87
2022/11/01 02:42:45;;;;;;;3.37;1.00;;;16.90;1.00;;;;;;5037726;28;20249;-83
2022/11/01 02:45:35;;;;;;;4.30;0.97;;;16.80;1.00;;;;;;5035542;28;20177;-83
2022/11/01 02:48:03;;;;;;;4.43;0.93;;;16.70;1.00;;;;;;5035790;28;20176;-82
2022/11/01 02:50:44;;;;;;;2.23;0.80;;;16.70;1.00;;;;;;5038261;28;20170;-83
2022/11/01 02:53:13;;;;;;;2.13;0.80;;;16.60;1.00;;;;;;5046075;28;20167;-86
2022/11/01 02:55:39;;;;;;;3.37;1.10;;;16.60;1.00;;;;;;5032518;28;20217;-84
2022/11/01 02:58:22;;;;;;;2.37;1.07;;;16.60;1.00;;;;;;5037587;28;20272;-83
2022/11/01 03:00:48;;;;;;;4.03;1.17;;;16.50;1.00;;;;;;5053168;28;20208;-81
2022/11/01 03:03:20;;;;;;;2.53;0.70;;;16.50;1.00;;;;;;5056421;28;20237;-83
2022/11/01 03:06:03;;;;;;;2.20;0.70;;;16.40;1.00;;;;;;5058018;28;20165;-81
2022/11/01 03:09:07;;;;;;;1.83;0.70;;;16.50;1.00;;;;;;5056602;28;20177;-83
2022/11/01 03:11:46;;;;;;;3.93;1.17;;;16.40;1.00;;;;;;5014877;28;20185;-83
2022/11/01 03:14:24;;;;;;;4.33;1.00;;;16.30;1.00;;;;;;5037837;28;20209;-84
2022/11/01 03:17:38;;;;;;;4.80;0.90;;;16.20;1.00;;;;;;5038044;28;20166;-84
2022/11/01 03:20:46;;;;;;;2.97;0.93;;;16.30;1.00;;;;;;5037522;28;20196;-86
2022/11/01 03:23:19;;;;;;;5.00;1.00;;;16.20;1.00;;;;;;5037391;28;20173;-84
2022/11/01 03:25:52;;;;;;;3.47;0.90;;;16.20;1.00;;;;;;5034904;28;20174;-84
2022/11/01 03:28:20;;;;;;;3.20;1.00;;;16.20;1.00;;;;;;5035021;28;20240;-83
2022/11/01 03:31:08;;;;;;;3.47;0.87;;;16.10;1.00;;;;;;5034563;28;20209;-83
2022/11/01 03:33:38;;;;;;;3.40;1.13;;;16.00;1.00;;;;;;5027030;28;20190;-84
2022/11/01 03:36:09;;;;;;;3.20;0.97;;;16.00;1.00;;;;;;5035591;28;20212;-84
2022/11/01 03:38:38;;;;;;;4.03;1.43;;;16.00;1.00;;;;;;5035728;28;20292;-83
2022/11/01 03:41:07;;;;;;;2.53;1.10;;;16.00;1.00;;;;;;5034794;28;20184;-84
2022/11/01 03:43:34;;;;;;;3.93;1.30;;;15.90;1.00;;;;;;5035690;28;20166;-82
2022/11/01 03:46:00;;;;;;;4.27;1.10;;;15.90;1.00;;;;;;5036306;28;20176;-84
2022/11/01 03:48:26;;;;;;;4.40;0.90;;;15.90;1.00;;;;;;5059478;28;20158;-84
2022/11/01 03:50:55;;;;;;;5.20;1.03;;;15.90;1.00;;;;;;5056526;28;20181;-83
2022/11/01 03:53:21;;;;;;;5.30;1.23;;;15.90;1.00;;;;;;5058911;28;20200;-84
2022/11/01 03:55:47;;;;;;;3.90;1.10;;;15.70;1.00;;;;;;5054687;28;20724;-82
2022/11/01 03:58:12;;;;;;;4.20;1.00;;;15.70;1.00;;;;;;5047745;28;20185;-82
2022/11/01 04:00:42;;;;;;;4.63;1.03;;;15.70;1.00;;;;;;5041667;28;20721;-83
2022/11/01 04:03:11;;;;;;;3.17;1.00;;;15.70;1.00;;;;;;5034527;28;20204;-83
2022/11/01 04:05:39;;;;;;;3.67;1.23;;;15.60;1.00;;;;;;5035762;28;20170;-81
2022/11/01 04:08:07;;;;;;;3.10;1.03;;;15.70;1.00;;;;;;5034843;28;20540;-83
2022/11/01 04:10:33;;;;;;;4.00;1.07;;;15.60;1.00;;;;;;5035765;28;20238;-83
2022/11/01 04:12:59;;;;;;;3.40;1.17;;;15.50;1.00;;;;;;5034505;28;20169;-82
2022/11/01 04:21:15;;;;;;;5.90;1.00;;;15.50;1.00;;;;;;5039930;28;20220;-83
2022/11/01 04:23:43;;;;;;;4.80;1.20;;;15.50;1.00;;;;;;5037012;28;20222;-84
2022/11/01 04:26:18;;;;;;;4.77;1.33;;;15.50;1.00;;;;;;5034104;28;20199;-82
2022/11/01 04:28:55;;;;;;;3.23;1.30;;;15.40;1.00;;;;;;5033645;28;20168;-83
2022/11/01 04:31:31;;;;;;;6.00;1.30;;;15.40;1.00;;;;;;5034184;28;20177;-82
2022/11/01 04:33:58;;;;;;;3.30;1.00;;;15.50;1.00;;;;;;5035725;28;20187;-84
2022/11/01 04:36:24;;;;;;;3.83;1.03;;;15.30;1.00;;;;;;5036669;28;20636;-82
2022/11/01 04:38:54;;;;;;;6.30;1.60;;;15.20;1.00;;;;;;5036022;28;20181;-83
2022/11/01 04:41:21;;;;;;;5.53;1.10;;;15.30;1.00;;;;;;5036324;28;20171;-83
2022/11/01 04:43:48;;;;;;;6.30;1.53;;;15.30;1.00;;;;;;5033479;28;20181;-84
2022/11/01 04:46:15;;;;;;;5.00;0.97;;;15.20;1.00;;;;;;5033350;28;20625;-83
2022/11/01 04:48:40;;;;;;;4.47;1.03;;;15.20;1.00;;;;;;5032881;28;20186;-82
2022/11/01 04:51:08;;;;;;;6.40;1.27;;;15.10;1.00;;;;;;5032874;28;20540;-83
2022/11/01 04:53:34;;;;;;;5.47;1.23;;;15.00;1.00;;;;;;5033331;28;20173;-83
2022/11/01 04:56:02;;;;;;;4.27;1.27;;;14.90;1.00;;;;;;5032863;28;20204;-83
2022/11/01 04:58:28;;;;;;;5.50;1.07;;;14.90;1.00;;;;;;5033094;28;20257;-83
2022/11/01 05:00:54;;;;;;;5.83;1.50;;;14.90;1.00;;;;;;5034128;28;20210;-82
2022/11/01 05:03:20;;;;;;;4.57;1.17;;;14.70;1.00;;;;;;5032870;28;20210;-83
2022/11/01 05:05:46;;;;;;;4.10;1.13;;;14.60;1.00;;;;;;5032888;28;20179;-83
2022/11/01 05:08:12;;;;;;;3.67;1.10;;;14.60;1.00;;;;;;5032721;28;20180;-83
2022/11/01 05:10:42;;;;;;;5.03;1.23;;;14.50;1.00;;;;;;5033352;28;20171;-82
2022/11/01 05:13:11;;;;;;;5.00;1.20;;;14.40;1.00;;;;;;5032853;28;20172;-82
2022/11/01 05:15:39;;;;;;;4.93;1.30;;;14.40;1.00;;;;;;5034547;28;20571;-83
2022/11/01 05:18:04;;;;;;;5.20;1.20;;;14.40;1.00;;;;;;5033228;28;20176;-83
2022/11/01 05:20:30;;;;;;;6.20;1.40;;;14.40;1.00;;;;;;5033423;28;20258;-82
2022/11/01 05:23:03;;;;;;;3.80;1.20;;;14.30;1.00;;;;;;5033326;28;20635;-84
2022/11/01 05:25:29;;;;;;;4.30;1.40;;;14.20;1.00;;;;;;5033616;28;20168;-83
2022/11/01 05:28:05;;;;;;;4.00;1.10;;;14.30;1.00;;;;;;5033421;28;20208;-82
2022/11/01 05:30:32;;;;;;;4.27;1.43;;;14.30;1.00;;;;;;5033077;28;20169;-82
2022/11/01 05:32:59;;;;;;;8.77;1.53;;;14.30;1.00;;;;;;5032697;28;20177;-82
2022/11/01 05:35:27;;;;;;;6.10;1.50;;;14.20;1.00;;;;;;5032806;28;20207;-83
2022/11/01 05:37:53;;;;;;;5.03;1.43;;;14.20;1.00;;;;;;5032551;28;20262;-83
2022/11/01 05:40:19;;;;;;;8.27;1.57;;;14.10;1.00;;;;;;5032461;28;20213;-83
2022/11/01 05:42:45;;;;;;;4.93;1.70;;;14.20;1.00;;;;;;5032160;28;20206;-83
2022/11/01 05:45:10;;;;;;;8.00;1.63;;;14.10;1.00;;;;;;5032508;28;20166;-83
2022/11/01 05:47:39;;;;;;;6.53;1.60;;;14.00;1.00;;;;;;5032681;28;20193;-81
2022/11/01 05:50:09;;;;;;;12.80;1.97;;;13.90;1.00;;;;;;5032368;28;20183;-81
2022/11/01 05:52:36;;;;;;;6.17;1.70;;;13.90;1.00;;;;;;5032231;28;20692;-82
2022/11/01 05:55:03;;;;;;;6.40;1.70;;;13.90;1.00;;;;;;5033519;28;20213;-84
2022/11/01 05:57:30;;;;;;;7.00;2.30;;;13.80;1.00;;;;;;5032272;28;20196;-83
2022/11/01 05:59:55;;;;;;;7.73;1.67;;;13.80;1.00;;;;;;5036582;28;20172;-84
2022/11/01 06:02:21;;;;;;;7.50;1.47;;;13.70;1.00;;;;;;5036700;28;20718;-82
2022/11/01 06:04:47;;;;;;;6.73;1.77;;;13.70;1.00;;;;;;5036467;28;20171;-82
2022/11/01 06:07:13;;;;;;;8.90;1.83;;;13.50;1.00;;;;;;5036275;28;20173;-85
2022/11/01 06:09:38;;;;;;;12.73;2.00;;;13.50;1.00;;;;;;5036632;28;20176;-84
2022/11/01 06:12:04;;;;;;;7.93;1.90;;;13.50;1.00;;;;;;5038057;28;20649;-86
2022/11/01 06:14:30;;;;;;;6.57;2.23;;;13.50;1.00;;;;;;5037970;28;20263;-85
2022/11/01 06:16:56;;;;;;;8.30;1.60;;;13.50;1.00;;;;;;5037887;28;20177;-85
2022/11/01 06:19:21;;;;;;;8.50;2.30;;;13.50;1.00;;;;;;5037116;28;20208;-83
2022/11/01 06:21:49;;;;;;;9.40;2.00;;;13.50;1.00;;;;;;5039035;28;20175;-81
2022/11/01 06:24:16;;;;;;;11.73;2.67;;;13.40;1.00;;;;;;5048418;28;20165;-86
2022/11/01 06:26:43;;;;;;;11.60;2.80;;;13.40;1.00;;;;;;5048394;28;20256;-86
2022/11/01 06:29:19;;;;;;;7.67;2.40;;;13.40;1.00;;;;;;5044845;28;20217;-85
2022/11/01 06:31:45;;;;;;;10.70;2.03;;;13.40;1.00;;;;;;5041281;28;20185;-85
2022/11/01 06:34:10;;;;;;;12.30;2.53;;;13.50;1.00;;;;;;5038576;28;20191;-84
2022/11/01 06:36:36;;;;;;;8.10;2.27;;;13.40;1.00;;;;;;5037449;28;20179;-83
2022/11/01 06:39:02;;;;;;;6.13;2.00;;;13.40;1.00;;;;;;5053127;28;20178;-81
2022/11/01 06:41:28;;;;;;;4.50;1.63;;;13.40;1.00;;;;;;5057259;28;20187;-82
2022/11/01 06:43:55;;;;;;;7.27;2.07;;;13.30;1.00;;;;;;5061087;28;20162;-83
2022/11/01 06:46:20;;;;;;;10.20;2.33;;;13.30;1.00;;;;;;5059092;28;20186;-86
2022/11/01 06:48:49;;;;;;;10.07;2.23;;;13.30;1.00;;;;;;5052401;28;20262;-82
2022/11/01 06:51:21;;;;;;;10.77;1.80;;;13.30;1.00;;;;;;5045331;28;20186;-82
2022/11/01 06:54:02;;;;;;;8.90;2.17;;;13.20;1.00;;;;;;5040325;28;20225;-86
2022/11/01 06:56:28;;;;;;;9.20;2.10;;;13.20;1.00;;;;;;5037964;28;20211;-85
2022/11/01 06:58:54;;;;;;;10.20;2.33;;;13.20;1.00;;;;;;5036966;28;20186;-87
2022/11/01 07:01:21;;;;;;;11.77;2.73;;;13.30;1.00;;;;;;5035741;28;20626;-85
2022/11/01 07:03:50;;;;;;;7.70;2.03;;;13.30;1.00;;;;;;5035820;28;20175;-83
2022/11/01 07:06:17;;;;;;;8.50;2.40;;;13.30;1.00;;;;;;5036417;28;20181;-83
2022/11/01 07:08:43;;;;;;;10.63;2.60;;;13.30;1.00;;;;;;5035853;28;20203;-85
2022/11/01 07:11:08;;;;;;;15.03;2.70;;;13.30;1.00;;;;;;5035854;28;20180;-84
2022/11/01 07:13:36;;;;;;;6.53;2.40;;;13.40;1.00;;;;;;5037529;28;20169;-86
2022/11/01 07:16:03;;;;;;;14.13;2.57;;;13.40;1.00;;;;;;5038598;28;20263;-87
2022/11/01 07:18:30;;;;;;;11.77;2.40;;;13.30;1.00;;;;;;5040640;28;20173;-86
2022/11/01 07:20:56;;;;;;;9.27;1.93;;;13.30;1.00;;;;;;5040015;28;20242;-86
2022/11/01 07:23:22;;;;;;;13.27;2.33;;;13.30;1.00;;;;;;5038866;28;20192;-85
2022/11/01 07:25:51;;;;;;;10.00;2.10;;;13.30;1.00;;;;;;5040299;28;20182;-85
2022/11/01 07:28:17;;;;;;;9.13;2.20;;;13.30;1.00;;;;;;5047125;28;20210;-84
2022/11/01 07:30:54;;;;;;;6.47;2.00;;;13.40;1.00;;;;;;5053968;28;20186;-83
2022/11/01 07:33:22;;;;;;;5.93;1.67;;;13.40;1.00;;;;;;5053686;28;20182;-85
2022/11/01 07:35:49;;;;;;;9.27;1.93;;;13.40;1.00;;;;;;5055559;28;20201;-83
2022/11/01 07:38:14;;;;;;;11.13;2.17;;;13.40;1.00;;;;;;5053704;28;20244;-84
2022/11/01 07:40:41;;;;;;;11.60;2.43;;;13.40;1.00;;;;;;5051970;28;20222;-87
2022/11/01 07:43:08;;;;;;;9.17;2.70;;;13.40;1.00;;;;;;5044304;28;20646;-83
2022/11/01 07:45:35;;;;;;;9.60;2.20;;;13.60;1.00;;;;;;5036601;28;20174;-84
2022/11/01 07:48:20;;;;;;;8.80;2.43;;;13.50;1.00;;;;;;5019707;28;20223;-83
2022/11/01 07:50:48;;;;;;;11.40;2.70;;;13.40;1.00;;;;;;5036837;28;20177;-82
2022/11/01 07:53:17;;;;;;;8.40;2.10;;;13.40;1.00;;;;;;5035585;28;20299;-82
2022/11/01 07:55:44;;;;;;;9.73;3.07;;;13.40;1.00;;;;;;5035752;28;20217;-82
2022/11/01 07:58:11;;;;;;;8.93;2.23;;;13.40;1.00;;;;;;5036608;28;20289;-82
2022/11/01 08:00:37;;;;;;;8.97;2.50;;;13.50;1.00;;;;;;5037076;28;20228;-82
2022/11/01 08:03:08;;;;;;;6.53;2.27;;;13.50;1.00;;;;;;5037478;28;20243;-85
2022/11/01 08:05:34;;;;;;;10.43;2.20;;;13.60;1.00;;;;;;5035457;28;20217;-82
2022/11/01 08:08:01;;;;;;;7.70;2.27;;;13.60;1.00;;;;;;5036035;28;20229;-85
2022/11/01 08:10:27;;;;;;;11.67;2.67;;;13.70;1.00;;;;;;5037371;28;20180;-85
2022/11/01 08:13:18;;;;;;;10.83;2.23;;;13.60;1.00;;;;;;5035670;28;20205;-84
2022/11/01 08:15:44;;;;;;;9.00;2.40;;;13.70;1.00;;;;;;5035349;28;20202;-83
2022/11/01 08:18:10;;;;;;;6.20;1.93;;;13.80;1.00;;;;;;5035158;28;20224;-84
2022/11/01 08:20:36;;;;;;;9.20;2.30;;;13.80;1.00;;;;;;5035155;28;20314;-83
2022/11/01 08:23:02;;;;;;;9.30;2.57;;;13.80;1.00;;;;;;5034356;28;20267;-83
2022/11/01 08:25:30;;;;;;;11.00;2.30;;;13.80;1.00;;;;;;5034518;28;20277;-85
2022/11/01 08:28:01;;;;;;;8.80;2.23;;;13.80;1.00;;;;;;5034746;28;20631;-84
2022/11/01 08:30:26;;;;;;;13.43;3.07;;;13.80;1.00;;;;;;5034416;28;20213;-82
2022/11/01 08:33:00;;;;;;;10.43;2.57;;;13.80;1.00;;;;;;5034291;28;20706;-83
2022/11/01 08:35:27;;;;;;;10.17;2.37;;;13.90;1.00;;;;;;5033942;28;20307;-83
2022/11/01 08:37:53;;;;;;;12.10;3.20;;;13.90;1.00;;;;;;5035687;28;20651;-84
2022/11/01 08:40:19;;;;;;;10.40;2.90;;;14.00;1.00;;;;;;5035856;28;20169;-83
2022/11/01 08:42:45;;;;;;;11.00;3.03;;;14.00;1.00;;;;;;5034352;28;20271;-83
2022/11/01 08:45:11;;;;;;;8.87;2.47;;;14.00;1.00;;;;;;5034092;28;20202;-84
2022/11/01 08:47:38;;;;;;;10.37;2.73;;;14.00;1.00;;;;;;5035628;28;20177;-82
2022/11/01 08:50:06;;;;;;;10.37;2.63;;;14.10;1.00;;;;;;5034230;28;20200;-81
2022/11/01 08:52:33;;;;;;;10.37;2.83;;;14.20;1.00;;;;;;5034780;28;20651;-83
2022/11/01 08:54:59;;;;;;;8.07;2.30;;;14.20;1.00;;;;;;5033839;28;20267;-82
2022/11/01 08:57:24;;;;;;;7.90;2.07;;;14.30;1.00;;;;;;5033469;28;20687;-83
2022/11/01 08:59:50;;;;;;;11.40;3.00;;;14.40;1.00;;;;;;5033951;28;20721;-84
2022/11/01 09:02:15;;;;;;;14.07;4.10;;;14.30;1.00;;;;;;5031104;28;20262;-82
2022/11/01 09:04:41;;;;;;;11.10;2.63;;;14.30;1.00;;;;;;5032436;28;20278;-83
2022/11/01 09:07:07;;;;;;;8.50;2.57;;;14.50;1.00;;;;;;5033305;28;20637;-85
2022/11/01 09:09:33;;;;;;;7.83;2.43;;;14.70;1.00;;;;;;5032152;28;20175;-82
2022/11/01 09:11:59;;;;;;;10.40;2.57;;;14.70;1.00;;;;;;5034796;28;20194;-82
2022/11/01 09:14:25;;;;;;;9.77;2.50;;;14.70;1.00;;;;;;5032621;28;20210;-80
2022/11/01 09:16:52;;;;;;;9.70;2.20;;;14.80;1.00;;;;;;5036209;28;20177;-83
2022/11/01 09:19:18;;;;;;;14.20;2.27;;;14.80;1.00;;;;;;5042505;28;20254;-87
2022/11/01 09:21:45;;;;;;;10.17;2.70;;;15.00;1.00;;;;;;5038850;28;20177;-87
2022/11/01 09:24:14;;;;;;;10.97;3.07;;;15.10;1.00;;;;;;5021190;28;20544;-88
2022/11/01 09:26:46;;;;;;;11.07;2.27;;;15.00;1.00;;;;;;5040480;28;20178;-87
2022/11/01 09:29:12;;;;;;;11.33;2.90;;;15.00;1.00;;;;;;5038087;28;20260;-87
2022/11/01 09:31:38;;;;;;;9.33;1.93;;;15.00;1.00;;;;;;5035711;28;20738;-86
2022/11/01 09:34:03;;;;;;;10.70;2.33;;;15.00;1.00;;;;;;5033092;28;20211;-83
2022/11/01 09:36:29;;;;;;;8.30;2.17;;;15.10;1.00;;;;;;5033105;28;20170;-84
2022/11/01 09:38:56;;;;;;;10.37;2.27;;;15.20;1.00;;;;;;5033750;28;20197;-85
2022/11/01 09:41:44;;;;;;;10.10;2.30;;;15.20;1.00;;;;;;5034734;28;20177;-85
2022/11/01 09:44:16;;;;;;;7.13;2.10;;;15.20;1.00;;;;;;5040560;28;20180;-84
2022/11/01 09:47:24;;;;;;;7.93;2.47;;;15.20;1.00;;;;;;5032642;28;20193;-86
2022/11/01 09:50:05;;;;;;;8.77;2.03;;;15.20;1.00;;;;;;5050431;28;20235;-82
2022/11/01 09:52:34;;;;;;;12.80;3.10;;;15.60;1.00;;;;;;5044807;28;20220;-80
2022/11/01 09:55:00;;;;;;;9.57;2.20;;;15.60;1.00;;;;;;5047004;28;20216;-83
2022/11/01 09:58:03;;;;;;;12.53;2.97;;;15.70;1.00;;;;;;5044187;28;20245;-82
2022/11/01 10:00:43;;;;;;;7.70;2.53;;;15.80;1.00;;;;;;5045797;28;20549;-87
2022/11/01 10:03:47;;;;;;;13.00;3.10;;;15.70;1.00;;;;;;5033120;28;20193;-87
2022/11/01 10:06:24;;;;;;;11.10;2.83;;;15.70;1.00;;;;;;5045310;28;20169;-85
2022/11/01 10:09:10;;;;;;;9.80;2.20;;;15.80;1.00;;;;;;5027463;28;20227;-86
2022/11/01 10:11:50;;;;;;;9.03;2.20;;;15.80;1.00;;;;;;5048300;28;20165;-86
2022/11/01 10:14:48;;;;;;;9.13;2.23;;;15.80;1.00;;;;;;5046228;28;20176;-85
2022/11/01 10:17:52;;;;;;;10.47;2.60;;;15.90;1.00;;;;;;5054385;28;20181;-81
2022/11/01 10:20:27;;;;;;;15.30;2.90;;;16.10;1.00;;;;;;5048212;28;20197;-84
2022/11/01 10:22:54;;;;;;;8.57;2.10;;;16.10;1.00;;;;;;5044437;28;20175;-81
2022/11/01 10:25:26;;;;;;;8.37;2.40;;;16.10;1.00;;;;;;5041023;28;20189;-83
2022/11/01 10:28:00;;;;;;;10.27;2.87;;;16.10;1.00;;;;;;5045593;28;20198;-86
2022/11/01 10:30:30;;;;;;;10.43;2.53;;;16.10;1.00;;;;;;5041122;28;20212;-83
2022/11/01 10:33:04;;;;;;;7.83;1.97;;;16.20;1.00;;;;;;5035846;28;20217;-80
2022/11/01 10:35:35;;;;;;;11.77;3.07;;;16.40;1.00;;;;;;5041235;28;20257;-82
2022/11/01 10:38:20;;;;;;;9.07;2.67;;;16.20;1.00;;;;;;5038861;28;20185;-81
2022/11/01 10:41:06;;;;;;;9.00;2.60;;;16.30;1.00;;;;;;5039130;28;20215;-80
2022/11/01 10:43:37;;;;;;;10.13;2.20;;;16.20;1.00;;;;;;5039410;28;20170;-86
2022/11/01 10:46:07;;;;;;;9.90;2.70;;;16.30;1.00;;;;;;5030187;28;20250;-85
2022/11/01 10:48:41;;;;;;;9.13;2.23;;;16.40;1.00;;;;;;5053094;28;20149;-82
2022/11/01 10:51:10;;;;;;;8.97;3.17;;;16.60;1.00;;;;;;5037439;28;20183;-83
2022/11/01 10:53:43;;;;;;;11.57;2.20;;;16.70;1.00;;;;;;5055728;28;20155;-82
2022/11/01 10:56:14;;;;;;;9.83;2.20;;;16.70;1.00;;;;;;5054249;28;20260;-83
2022/11/01 10:58:52;;;;;;;9.57;2.63;;;16.70;1.00;;;;;;5050327;28;20230;-85
2022/11/01 11:01:25;;;;;;;10.03;2.20;;;16.60;1.00;;;;;;5051622;28;20173;-83
2022/11/01 11:03:54;;;;;;;10.27;2.67;;;16.60;1.00;;;;;;5047021;28;20208;-82
2022/11/01 11:06:26;;;;;;;11.80;2.97;;;16.70;1.00;;;;;;5053689;28;20172;-85
2022/11/01 11:08:56;;;;;;;10.50;2.47;;;16.80;1.00;;;;;;5058152;28;20166;-83
2022/11/01 11:11:41;;;;;;;11.87;2.43;;;16.80;1.00;;;;;;5058156;28;20208;-82
2022/11/01 11:14:10;;;;;;;10.30;2.30;;;16.80;1.00;;;;;;5053772;28;20166;-82
2022/11/01 11:16:50;;;;;;;9.13;1.80;;;16.80;1.00;;;;;;5053112;28;20284;-80
2022/11/01 11:19:23;;;;;;;7.97;2.00;;;16.70;1.00;;;;;;5049630;28;20733;-83
2022/11/01 11:21:58;;;;;;;8.33;2.37;;;16.70;1.00;;;;;;5046922;28;20197;-83
2022/11/01 11:24:38;;;;;;;8.23;2.60;;;16.70;1.00;;;;;;5045947;28;20180;-85
2022/11/01 11:27:26;;;;;;;11.63;2.40;;;16.80;1.00;;;;;;5047644;28;20165;-81
2022/11/01 11:30:13;;;;;;;7.23;2.10;;;16.90;1.00;;;;;;5052159;28;20165;-83
2022/11/01 11:32:49;;;;;;;9.40;2.27;;;17.00;1.00;;;;;;5051364;28;20179;-85
2022/11/01 11:35:20;;;;;;;9.20;2.33;;;17.00;1.00;;;;;;5044354;28;20202;-83
2022/11/01 11:37:57;;;;;;;8.53;2.00;;;16.90;1.00;;;;;;5051327;28;20170;-85
2022/11/01 11:40:42;;;;;;;13.30;2.90;;;16.90;1.00;;;;;;5035654;28;20597;-85
2022/11/01 11:43:32;;;;;;;12.33;2.20;;;16.70;1.00;;;;;;5050027;28;20176;-83
2022/11/01 11:46:19;;;;;;;7.23;2.20;;;16.90;1.00;;;;;;5043280;28;20178;-86
2022/11/01 11:49:03;;;;;;;10.77;2.20;;;16.80;1.00;;;;;;5053566;28;20181;-84
2022/11/01 11:51:36;;;;;;;8.80;2.20;;;16.90;1.00;;;;;;5042173;28;20177;-84
2022/11/01 11:54:17;;;;;;;8.53;2.57;;;17.00;1.00;;;;;;5048504;28;20208;-82
2022/11/01 11:56:44;;;;;;;12.43;2.50;;;17.00;1.00;;;;;;5045399;28;20205;-82
2022/11/01 11:59:31;;;;;;;9.43;2.33;;;16.90;1.00;;;;;;5044920;28;20174;-80
2022/11/01 12:02:00;;;;;;;7.90;2.33;;;16.90;1.00;;;;;;5044987;28;20201;-84
2022/11/01 12:04:44;;;;;;;9.57;2.20;;;16.90;1.00;;;;;;5046589;28;20213;-81
2022/11/01 12:07:26;;;;;;;11.63;2.53;;;16.90;1.00;;;;;;5042800;28;20167;-84
2022/11/01 12:09:54;;;;;;;9.40;2.53;;;16.90;1.00;;;;;;5044877;28;20178;-85
2022/11/01 12:12:41;;;;;;;10.13;2.47;;;17.10;1.00;;;;;;5044653;28;20255;-84
2022/11/01 12:15:27;;;;;;;8.90;2.70;;;17.20;1.00;;;;;;5039676;28;20217;-83
2022/11/01 12:17:54;;;;;;;9.00;2.50;;;17.30;1.00;;;;;;5032544;28;20181;-84
2022/11/01 12:20:23;;;;;;;9.87;2.43;;;17.20;1.00;;;;;;5040203;28;20597;-84
2022/11/01 12:23:11;;;;;;;10.87;2.23;;;17.10;1.00;;;;;;5042996;28;20199;-84
2022/11/01 12:25:40;;;;;;;10.43;2.37;;;17.20;1.00;;;;;;5058261;28;20208;-84
2022/11/01 12:28:12;;;;;;;9.57;2.10;;;17.20;1.00;;;;;;5023600;28;20173;-83
2022/11/01 12:30:42;;;;;;;8.87;2.83;;;17.30;1.00;;;;;;5048009;28;20193;-82
2022/11/01 12:33:23;;;;;;;10.50;2.23;;;17.20;1.00;;;;;;5039800;28;20178;-83
2022/11/01 12:35:53;;;;;;;6.27;2.03;;;17.20;1.00;;;;;;5039207;28;20278;-84
2022/11/01 12:38:21;;;;;;;9.77;2.00;;;17.20;1.00;;;;;;5041203;28;20183;-82
2022/11/01 12:40:51;;;;;;;10.90;2.80;;;17.30;1.00;;;;;;5043529;28;20228;-83
2022/11/01 12:43:34;;;;;;;6.80;2.10;;;17.40;1.00;;;;;;5042592;28;20177;-84
2022/11/01 12:46:13;;;;;;;7.47;2.60;;;17.40;1.00;;;;;;5036067;28;20201;-82
2022/11/01 12:48:45;;;;;;;7.90;2.40;;;17.40;1.00;;;;;;5045644;28;20544;-84
2022/11/01 12:51:28;;;;;;;8.47;1.87;;;17.60;1.00;;;;;;5045902;28;20681;-84
2022/11/01 12:54:08;;;;;;;6.60;2.10;;;17.60;1.00;;;;;;5042782;28;20164;-82
2022/11/01 12:56:35;;;;;;;10.00;2.73;;;17.50;1.00;;;;;;5043355;28;20216;-84
2022/11/01 12:59:00;;;;;;;11.67;2.47;;;17.60;1.00;;;;;;5039605;28;20539;-84
2022/11/01 13:01:47;;;;;;;8.97;2.60;;;17.60;1.00;;;;;;5041273;28;20209;-83
2022/11/01 13:04:34;;;;;;;8.97;2.10;;;17.50;1.00;;;;;;5050960;28;20180;-82
2022/11/01 13:07:11;;;;;;;9.43;2.47;;;17.50;1.00;;;;;;5039138;28;20646;-82
2022/11/01 13:09:53;;;;;;;10.83;2.10;;;17.60;1.00;;;;;;5044349;28;20173;-82
2022/11/01 13:12:34;;;;;;;7.67;1.90;;;17.50;1.00;;;;;;5045419;28;20713;-82
2022/11/01 13:15:17;;;;;;;11.73;2.10;;;17.60;1.00;;;;;;5043431;28;20198;-81
2022/11/01 13:17:56;;;;;;;9.03;1.97;;;17.60;1.00;;;;;;5041161;28;20177;-81
2022/11/01 13:20:42;;;;;;;6.63;2.27;;;17.50;1.00;;;;;;5040204;28;20278;-80
2022/11/01 13:23:27;;;;;;;8.27;2.30;;;17.50;1.00;;;;;;5041630;28;20193;-81
2022/11/01 13:26:26;;;;;;;11.30;2.33;;;17.60;1.00;;;;;;5043181;28;20692;-81